Time;durP1;ratioP1;P1;durP2;ratioP2;P2;SDS_P1;SDS_P2;PMS_P1;PMS_P2;Temp;Humidity;BMP_temperature;BMP_pressure;BME280_temperature;BME280_humidity;BME280_pressure;Samples;Min_cycle;Max_cycle;Signal;HPM_P1;HPM_P2
2023/09/16 00:01:15;;;;;;;15.85;12.13;;;14.70;99.90;;;;;;5018163;28;20429;-78
2023/09/16 00:03:40;;;;;;;15.23;12.47;;;14.60;99.90;;;;;;5047249;28;20517;-78
2023/09/16 00:06:06;;;;;;;14.70;12.77;;;14.60;99.90;;;;;;5018620;28;20436;-78
2023/09/16 00:08:33;;;;;;;16.73;12.68;;;;;;;;;;5033772;28;20492;-78
2023/09/16 00:11:02;;;;;;;14.75;12.57;;;14.60;99.90;;;;;;5032988;28;20527;-78
2023/09/16 00:13:27;;;;;;;17.67;13.27;;;14.50;99.90;;;;;;5050329;28;20445;-79
2023/09/16 00:15:53;;;;;;;16.27;13.30;;;14.40;99.90;;;;;;5037944;28;20443;-79
2023/09/16 00:18:19;;;;;;;16.25;13.90;;;14.50;99.90;;;;;;5044645;28;20900;-78
2023/09/16 00:20:49;;;;;;;19.80;14.13;;;14.40;99.90;;;;;;5018354;28;20397;-78
2023/09/16 00:23:15;;;;;;;16.98;13.38;;;14.40;99.90;;;;;;5040064;28;20440;-78
2023/09/16 00:25:42;;;;;;;14.80;12.70;;;14.10;99.90;;;;;;5017052;28;20425;-78
2023/09/16 00:28:08;;;;;;;15.73;13.05;;;;;;;;;;5032737;28;20421;-78
2023/09/16 00:30:35;;;;;;;15.23;12.90;;;14.10;99.90;;;;;;5048563;28;20844;-78
2023/09/16 00:33:03;;;;;;;17.35;13.48;;;14.30;99.90;;;;;;5015104;28;20955;-78
2023/09/16 00:35:29;;;;;;;15.23;13.37;;;;;;;;;;5016946;28;20944;-79
2023/09/16 00:37:55;;;;;;;16.52;13.90;;;;;;;;;;5067862;28;20401;-78
2023/09/16 00:40:21;;;;;;;17.30;14.35;;;14.00;99.90;;;;;;5065586;28;20462;-79
2023/09/16 00:42:47;;;;;;;17.20;14.07;;;14.10;99.90;;;;;;5014368;28;20513;-78
2023/09/16 00:45:14;;;;;;;16.50;13.80;;;14.10;99.90;;;;;;5033525;28;20559;-78
2023/09/16 00:47:41;;;;;;;17.25;14.18;;;13.90;99.90;;;;;;5037434;28;20423;-78
2023/09/16 00:50:09;;;;;;;16.42;13.93;;;14.20;99.90;;;;;;5048362;28;20940;-79
2023/09/16 00:52:40;;;;;;;16.20;13.52;;;13.90;99.90;;;;;;5032268;28;20822;-79
2023/09/16 00:55:06;;;;;;;16.92;14.43;;;13.80;99.90;;;;;;5034046;28;20416;-78
2023/09/16 00:57:32;;;;;;;15.60;13.57;;;13.80;99.90;;;;;;5063697;28;20887;-78
2023/09/16 00:59:58;;;;;;;15.55;13.93;;;13.70;99.90;;;;;;5022695;28;20466;-78
2023/09/16 01:02:26;;;;;;;19.42;15.88;;;14.10;99.90;;;;;;5037426;28;20510;-78
2023/09/16 01:04:53;;;;;;;17.33;14.23;;;13.60;99.90;;;;;;5023537;28;20494;-78
2023/09/16 01:07:20;;;;;;;16.58;14.20;;;13.80;99.90;;;;;;5046359;28;20445;-78
2023/09/16 01:09:47;;;;;;;16.27;13.63;;;;;;;;;;5002349;28;20425;-78
2023/09/16 01:12:12;;;;;;;16.20;13.43;;;13.70;99.90;;;;;;5027438;28;20449;-78
2023/09/16 01:14:38;;;;;;;16.93;13.93;;;13.70;99.90;;;;;;5039452;28;20452;-78
2023/09/16 01:17:14;;;;;;;16.63;13.32;;;13.70;99.90;;;;;;5034247;28;20417;-78
2023/09/16 01:19:52;;;;;;;17.63;13.40;;;13.70;99.90;;;;;;5040247;28;20481;-78
2023/09/16 01:22:19;;;;;;;16.38;13.18;;;13.60;99.90;;;;;;5032610;28;20440;-78
2023/09/16 01:24:54;;;;;;;16.50;14.77;;;13.70;99.90;;;;;;5066739;28;20421;-78
2023/09/16 01:27:21;;;;;;;15.77;13.57;;;13.60;99.90;;;;;;5031620;28;20534;-78
2023/09/16 01:29:48;;;;;;;16.00;13.87;;;13.50;99.90;;;;;;5026679;28;20463;-78
2023/09/16 01:32:16;;;;;;;16.17;14.43;;;13.60;99.90;;;;;;5026731;28;20417;-78
2023/09/16 01:34:49;;;;;;;18.05;15.13;;;13.40;99.90;;;;;;5032920;28;20421;-78
2023/09/16 01:37:22;;;;;;;17.77;14.40;;;13.50;99.90;;;;;;5031514;28;20510;-78
2023/09/16 01:40:10;;;;;;;15.85;14.15;;;13.50;99.90;;;;;;5031392;28;20425;-78
2023/09/16 01:42:36;;;;;;;15.85;13.98;;;13.50;99.90;;;;;;5030486;28;20430;-78
2023/09/16 01:45:03;;;;;;;18.40;14.18;;;13.40;99.90;;;;;;5041620;28;20555;-78
2023/09/16 01:47:29;;;;;;;15.07;13.48;;;;;;;;;;5033162;28;20920;-78
2023/09/16 01:49:55;;;;;;;16.03;13.00;;;13.40;99.90;;;;;;5034025;28;20955;-78
2023/09/16 01:52:20;;;;;;;15.47;13.00;;;13.30;99.90;;;;;;5049024;28;20417;-78
2023/09/16 01:54:46;;;;;;;14.02;12.43;;;13.50;99.90;;;;;;5045475;28;20511;-78
2023/09/16 01:57:12;;;;;;;15.95;14.23;;;;;;;;;;5033663;28;20425;-78
2023/09/16 01:59:38;;;;;;;16.13;14.40;;;13.50;99.90;;;;;;5061562;28;20412;-78
2023/09/16 02:02:04;;;;;;;18.70;13.27;;;13.50;99.90;;;;;;5033330;28;20423;-78
2023/09/16 02:04:30;;;;;;;14.85;12.68;;;;;;;;;;5064873;28;20425;-78
2023/09/16 02:06:55;;;;;;;15.00;13.23;;;13.40;99.90;;;;;;5032330;28;20457;-78
2023/09/16 02:09:21;;;;;;;14.83;12.57;;;13.30;99.90;;;;;;5065552;28;20851;-78
2023/09/16 02:11:47;;;;;;;14.67;11.77;;;13.40;99.90;;;;;;5016116;28;20785;-78
2023/09/16 02:14:16;;;;;;;14.73;13.20;;;13.40;99.90;;;;;;5015266;28;20506;-77
2023/09/16 02:16:42;;;;;;;15.13;12.90;;;;;;;;;;5020694;28;20718;-78
2023/09/16 02:19:08;;;;;;;14.05;11.82;;;13.20;99.90;;;;;;5035461;28;20417;-78
2023/09/16 02:21:33;;;;;;;20.33;13.80;;;13.30;99.90;;;;;;5036066;28;20427;-78
2023/09/16 02:23:59;;;;;;;18.77;16.17;;;13.30;99.90;;;;;;5034248;28;21021;-78
2023/09/16 02:26:25;;;;;;;21.13;18.50;;;13.10;99.90;;;;;;5004983;28;20429;-78
2023/09/16 02:28:51;;;;;;;20.83;17.80;;;;;;;;;;5036439;28;20457;-78
2023/09/16 02:31:16;;;;;;;15.55;13.60;;;13.20;99.90;;;;;;5019958;28;20421;-78
2023/09/16 02:33:42;;;;;;;16.97;14.33;;;13.10;99.90;;;;;;5078064;28;20422;-78
2023/09/16 02:36:08;;;;;;;16.97;14.87;;;;;;;;;;5038825;28;20590;-78
2023/09/16 02:38:34;;;;;;;17.95;15.02;;;13.20;99.90;;;;;;5033706;28;20448;-78
2023/09/16 02:41:04;;;;;;;17.07;14.53;;;13.10;99.90;;;;;;5034945;28;20506;-78
2023/09/16 02:43:30;;;;;;;18.30;16.30;;;;;;;;;;5029662;28;20433;-78
2023/09/16 02:45:57;;;;;;;22.13;16.15;;;;;;;;;;5035704;28;20514;-78
2023/09/16 02:48:23;;;;;;;17.08;14.25;;;12.90;99.90;;;;;;5035240;28;20417;-78
2023/09/16 02:50:49;;;;;;;16.98;15.13;;;13.00;99.90;;;;;;5037067;28;20440;-78
2023/09/16 02:53:16;;;;;;;18.25;14.95;;;12.90;99.90;;;;;;5048722;28;20500;-78
2023/09/16 02:55:42;;;;;;;16.52;14.80;;;;;;;;;;5034608;28;20756;-78
2023/09/16 02:58:07;;;;;;;17.05;14.75;;;12.70;99.90;;;;;;5019850;28;20464;-78
2023/09/16 03:00:33;;;;;;;17.13;14.23;;;12.90;99.90;;;;;;5088403;28;20447;-77
2023/09/16 03:02:59;;;;;;;18.40;15.95;;;12.70;99.90;;;;;;5038346;28;20422;-77
2023/09/16 03:05:25;;;;;;;16.80;14.63;;;12.80;99.90;;;;;;5068163;28;20429;-78
2023/09/16 03:07:51;;;;;;;16.75;14.88;;;12.80;99.90;;;;;;5069582;28;20398;-77
2023/09/16 03:10:17;;;;;;;19.33;16.37;;;12.70;99.90;;;;;;5049807;28;20445;-78
2023/09/16 03:12:42;;;;;;;19.92;16.45;;;12.50;99.90;;;;;;5049281;28;20492;-78
2023/09/16 03:15:09;;;;;;;19.03;16.20;;;12.30;99.90;;;;;;5032198;28;20427;-78
2023/09/16 03:17:35;;;;;;;19.23;16.25;;;;;;;;;;5065369;28;20424;-77
2023/09/16 03:20:02;;;;;;;20.27;16.60;;;;;;;;;;5068049;28;20516;-78
2023/09/16 03:22:27;;;;;;;18.98;15.93;;;12.70;99.90;;;;;;5036131;28;20417;-78
2023/09/16 03:24:53;;;;;;;17.80;15.07;;;12.60;99.90;;;;;;5001720;28;20893;-77
2023/09/16 03:27:19;;;;;;;19.58;17.48;;;;;;;;;;5038674;28;20473;-77
2023/09/16 03:29:45;;;;;;;19.20;16.42;;;12.50;99.90;;;;;;5033363;28;20538;-77
2023/09/16 03:32:10;;;;;;;19.35;16.52;;;12.30;99.90;;;;;;5070510;28;20498;-78
2023/09/16 03:34:36;;;;;;;20.33;18.00;;;12.60;99.90;;;;;;5055212;28;20939;-78
2023/09/16 03:37:02;;;;;;;19.83;17.23;;;12.70;99.90;;;;;;5026441;28;20839;-78
2023/09/16 03:39:27;;;;;;;21.87;18.30;;;12.40;99.90;;;;;;5029510;28;20418;-77
2023/09/16 03:41:54;;;;;;;18.58;16.58;;;12.50;99.90;;;;;;5046381;28;20476;-77
2023/09/16 03:44:20;;;;;;;18.05;15.65;;;12.50;99.90;;;;;;5038118;28;20562;-77
2023/09/16 03:46:46;;;;;;;18.58;16.65;;;12.70;99.90;;;;;;5017660;28;21463;-77
2023/09/16 03:49:11;;;;;;;18.43;16.53;;;12.60;99.90;;;;;;5019097;28;20402;-77
2023/09/16 03:51:38;;;;;;;17.80;15.67;;;12.50;99.90;;;;;;5021436;28;20474;-78
2023/09/16 03:54:06;;;;;;;17.80;15.90;;;;;;;;;;5019164;28;20426;-77
2023/09/16 03:56:32;;;;;;;17.38;15.57;;;12.50;99.90;;;;;;5026109;28;20464;-76
2023/09/16 03:58:58;;;;;;;16.50;14.23;;;;;;;;;;5035285;28;20901;-77
2023/09/16 04:01:24;;;;;;;19.23;16.15;;;;;;;;;;5035082;28;20421;-76
2023/09/16 04:03:51;;;;;;;18.05;15.90;;;;;;;;;;5035584;28;20424;-76
2023/09/16 04:06:17;;;;;;;16.27;14.60;;;;;;;;;;5032857;28;20436;-76
2023/09/16 04:08:43;;;;;;;18.88;15.88;;;12.30;99.90;;;;;;5034479;28;20421;-76
2023/09/16 04:11:09;;;;;;;16.30;14.60;;;;;;;;;;5050423;28;20477;-76
2023/09/16 04:13:35;;;;;;;17.55;15.77;;;12.20;99.90;;;;;;5018820;28;20455;-76
2023/09/16 04:16:02;;;;;;;17.30;15.50;;;;;;;;;;5066201;28;20857;-76
2023/09/16 04:18:29;;;;;;;18.85;16.95;;;12.30;99.90;;;;;;5000819;28;20513;-76
2023/09/16 04:20:55;;;;;;;18.60;16.70;;;12.30;99.90;;;;;;5045235;28;20449;-76
2023/09/16 04:23:24;;;;;;;17.77;16.07;;;12.10;99.90;;;;;;5017731;28;20472;-76
2023/09/16 04:25:54;;;;;;;16.23;14.73;;;12.20;99.90;;;;;;5076405;28;20417;-75
2023/09/16 04:28:20;;;;;;;16.50;14.90;;;;;;;;;;5033813;28;20417;-75
2023/09/16 04:30:51;;;;;;;15.70;14.20;;;12.20;99.90;;;;;;5032082;28;20431;-77
2023/09/16 04:33:18;;;;;;;16.02;14.43;;;;;;;;;;5034797;28;20423;-76
2023/09/16 04:35:48;;;;;;;16.27;14.68;;;12.20;99.90;;;;;;5038673;28;20452;-76
2023/09/16 04:38:15;;;;;;;16.65;15.05;;;12.10;99.90;;;;;;5066550;28;20425;-76
2023/09/16 04:40:42;;;;;;;17.47;15.77;;;12.10;99.90;;;;;;5033075;28;20429;-76
2023/09/16 04:43:09;;;;;;;16.00;14.50;;;;;;;;;;5033739;28;20948;-75
2023/09/16 04:45:35;;;;;;;15.18;13.68;;;11.70;99.90;;;;;;5018104;28;20448;-75
2023/09/16 04:48:01;;;;;;;15.63;14.17;;;12.10;99.90;;;;;;5033674;28;20468;-75
2023/09/16 04:50:28;;;;;;;15.68;14.18;;;12.00;99.90;;;;;;5031222;28;20789;-76
2023/09/16 04:52:55;;;;;;;16.88;15.20;;;12.00;99.90;;;;;;5049788;28;20415;-76
2023/09/16 04:55:21;;;;;;;16.58;14.98;;;;;;;;;;5040170;28;20448;-76
2023/09/16 04:57:47;;;;;;;15.30;13.93;;;;;;;;;;5051004;28;20412;-76
2023/09/16 05:00:13;;;;;;;16.67;15.07;;;11.90;99.90;;;;;;5033738;28;20613;-75
2023/09/16 05:02:39;;;;;;;17.40;15.60;;;;;;;;;;5017278;28;20940;-75
2023/09/16 05:05:05;;;;;;;16.20;14.60;;;11.70;99.90;;;;;;5063472;28;20429;-75
2023/09/16 05:07:31;;;;;;;15.95;14.45;;;11.80;99.90;;;;;;5033096;28;20424;-75
2023/09/16 05:09:57;;;;;;;16.87;15.17;;;11.80;99.90;;;;;;5066543;28;20464;-75
2023/09/16 05:12:23;;;;;;;15.13;13.73;;;;;;;;;;5034523;28;20796;-75
2023/09/16 05:14:50;;;;;;;15.07;13.67;;;11.80;99.90;;;;;;5037796;28;20419;-75
2023/09/16 05:17:17;;;;;;;14.60;13.30;;;;;;;;;;5038165;28;20456;-75
2023/09/16 05:19:42;;;;;;;14.32;13.02;;;11.70;99.90;;;;;;5072698;28;20448;-75
2023/09/16 05:22:08;;;;;;;15.52;14.05;;;;;;;;;;5032950;28;20429;-75
2023/09/16 05:24:34;;;;;;;14.77;13.32;;;11.70;99.90;;;;;;5019378;28;20415;-75
2023/09/16 05:27:00;;;;;;;15.95;14.45;;;11.80;99.90;;;;;;5010574;28;20426;-75
2023/09/16 05:29:26;;;;;;;16.53;15.00;;;11.70;99.90;;;;;;5030488;28;20424;-75
2023/09/16 05:31:53;;;;;;;16.57;15.00;;;;;;;;;;5031696;28;20424;-76
2023/09/16 05:34:19;;;;;;;16.08;14.50;;;11.70;99.90;;;;;;5020951;28;20471;-76
2023/09/16 05:36:45;;;;;;;16.17;14.65;;;;;;;;;;5064765;28;20787;-76
2023/09/16 05:39:10;;;;;;;16.58;15.07;;;11.70;99.90;;;;;;5032390;28;20432;-75
2023/09/16 05:41:36;;;;;;;17.23;15.63;;;11.90;99.90;;;;;;5019551;28;20437;-75
2023/09/16 05:44:02;;;;;;;17.95;16.25;;;;;;;;;;5016257;28;20417;-75
2023/09/16 05:46:29;;;;;;;16.08;14.57;;;;;;;;;;5037287;28;20477;-76
2023/09/16 05:49:06;;;;;;;16.58;14.98;;;;;;;;;;5051591;28;20438;-76
2023/09/16 05:51:32;;;;;;;16.27;14.68;;;11.90;99.90;;;;;;5046297;28;20438;-75
2023/09/16 05:53:58;;;;;;;15.63;14.13;;;;;;;;;;5047337;28;20429;-76
2023/09/16 05:56:24;;;;;;;17.05;15.45;;;12.10;99.90;;;;;;5043466;28;20462;-75
2023/09/16 05:58:50;;;;;;;15.20;13.80;;;12.30;99.90;;;;;;5045838;28;20456;-75
2023/09/16 06:01:15;;;;;;;15.10;13.70;;;12.20;99.90;;;;;;5040436;28;20831;-75
2023/09/16 06:03:41;;;;;;;14.48;13.07;;;12.30;99.90;;;;;;5027713;28;20457;-76
2023/09/16 06:06:07;;;;;;;13.13;11.88;;;12.40;99.90;;;;;;5059126;28;20423;-75
2023/09/16 06:08:33;;;;;;;14.10;12.70;;;;;;;;;;5046829;28;20463;-75
2023/09/16 06:10:59;;;;;;;14.95;13.48;;;;;;;;;;5022682;28;20444;-75
2023/09/16 06:13:25;;;;;;;13.90;12.50;;;12.60;99.90;;;;;;5043230;28;20430;-77
2023/09/16 06:15:51;;;;;;;14.47;13.07;;;;;;;;;;5051766;28;20434;-74
2023/09/16 06:18:17;;;;;;;15.05;13.55;;;12.80;99.90;;;;;;5039621;28;20441;-75
2023/09/16 06:20:43;;;;;;;13.67;12.37;;;;;;;;;;5049477;28;20784;-75
2023/09/16 06:23:09;;;;;;;14.02;12.70;;;13.10;99.90;;;;;;5066442;28;20417;-74
2023/09/16 06:25:35;;;;;;;14.90;13.30;;;12.90;99.90;;;;;;5036657;28;20435;-74
2023/09/16 06:28:03;;;;;;;16.17;14.57;;;13.20;99.90;;;;;;5035400;28;20413;-74
2023/09/16 06:30:28;;;;;;;17.10;15.10;;;13.30;99.90;;;;;;5023440;28;20424;-75
2023/09/16 06:32:55;;;;;;;16.73;15.03;;;13.40;99.90;;;;;;5035944;28;20499;-74
2023/09/16 06:35:21;;;;;;;16.15;14.50;;;13.70;99.90;;;;;;5052132;28;20474;-74
2023/09/16 06:37:47;;;;;;;15.82;14.23;;;13.80;99.90;;;;;;5019720;28;20425;-74
2023/09/16 06:40:12;;;;;;;16.40;14.70;;;13.80;99.90;;;;;;5037550;28;20823;-74
2023/09/16 06:42:38;;;;;;;15.77;14.07;;;13.90;99.90;;;;;;5070665;28;20487;-74
2023/09/16 06:45:04;;;;;;;15.90;14.30;;;13.80;99.90;;;;;;5052713;28;20907;-74
2023/09/16 06:47:30;;;;;;;15.60;14.05;;;14.10;99.90;;;;;;5055146;28;20414;-74
2023/09/16 06:49:56;;;;;;;14.87;13.37;;;14.40;99.90;;;;;;5048220;28;20765;-75
2023/09/16 06:52:22;;;;;;;14.90;13.40;;;14.40;99.90;;;;;;5038209;28;20516;-74
2023/09/16 06:54:49;;;;;;;15.00;13.43;;;14.60;99.90;;;;;;5034737;28;20508;-73
2023/09/16 06:57:15;;;;;;;15.93;14.32;;;14.60;99.90;;;;;;5024750;28;20439;-74
2023/09/16 06:59:41;;;;;;;14.93;13.38;;;14.50;99.90;;;;;;5071914;28;20405;-75
2023/09/16 07:02:06;;;;;;;14.68;13.18;;;15.00;99.90;;;;;;5032428;28;20429;-75
2023/09/16 07:04:32;;;;;;;15.13;13.57;;;14.90;99.90;;;;;;5036198;28;20421;-74
2023/09/16 07:06:58;;;;;;;15.23;13.60;;;15.30;99.90;;;;;;5034360;28;21990;-74
2023/09/16 07:09:23;;;;;;;14.85;13.35;;;15.40;99.90;;;;;;5018659;28;20440;-75
2023/09/16 07:11:49;;;;;;;14.95;13.32;;;15.50;99.90;;;;;;5017391;28;20428;-75
2023/09/16 07:14:15;;;;;;;14.57;13.07;;;15.70;99.90;;;;;;5015505;28;20421;-75
2023/09/16 07:16:40;;;;;;;14.77;13.20;;;16.00;99.90;;;;;;5036403;28;20798;-75
2023/09/16 07:19:07;;;;;;;14.48;12.60;;;15.80;99.90;;;;;;4986185;28;20425;-75
2023/09/16 07:21:33;;;;;;;14.83;13.33;;;15.90;99.90;;;;;;5033790;28;20512;-75
2023/09/16 07:24:02;;;;;;;13.70;12.30;;;16.30;99.90;;;;;;5018364;28;20421;-76
2023/09/16 07:26:28;;;;;;;13.73;12.15;;;16.50;99.90;;;;;;5017375;28;20464;-76
2023/09/16 07:28:55;;;;;;;15.63;12.60;;;16.70;99.90;;;;;;5036711;28;20411;-76
2023/09/16 07:31:20;;;;;;;13.77;12.25;;;16.80;99.90;;;;;;5034256;28;20419;-76
2023/09/16 07:33:47;;;;;;;14.10;12.33;;;16.80;99.90;;;;;;5034563;28;20508;-76
2023/09/16 07:36:12;;;;;;;13.48;12.10;;;17.20;99.90;;;;;;5018265;28;20931;-77
2023/09/16 07:38:38;;;;;;;14.13;11.83;;;17.20;99.90;;;;;;5029499;28;20425;-76
2023/09/16 07:41:04;;;;;;;13.55;12.05;;;17.40;99.90;;;;;;5033624;28;20870;-77
2023/09/16 07:43:29;;;;;;;13.80;12.00;;;17.60;99.90;;;;;;5035409;28;20447;-76
2023/09/16 07:45:56;;;;;;;12.97;11.57;;;18.00;99.90;;;;;;5013947;28;20421;-75
2023/09/16 07:48:22;;;;;;;15.82;11.20;;;17.90;99.90;;;;;;5030475;28;20433;-76
2023/09/16 07:50:48;;;;;;;13.93;11.43;;;18.00;99.90;;;;;;5020808;28;20419;-76
2023/09/16 07:53:14;;;;;;;12.20;10.57;;;18.30;99.90;;;;;;5048202;28;20431;-76
2023/09/16 07:55:40;;;;;;;12.98;10.77;;;18.30;99.90;;;;;;5016468;28;20425;-76
2023/09/16 07:58:06;;;;;;;11.90;10.70;;;18.50;99.90;;;;;;5036902;28;20437;-76
2023/09/16 08:00:33;;;;;;;13.50;10.80;;;18.70;99.90;;;;;;5013289;28;20454;-76
2023/09/16 08:02:59;;;;;;;12.02;10.25;;;18.60;99.90;;;;;;5047902;28;20493;-76
2023/09/16 08:05:24;;;;;;;12.77;10.93;;;18.90;99.90;;;;;;5019553;28;20447;-78
2023/09/16 08:07:50;;;;;;;13.23;10.88;;;18.90;99.90;;;;;;5047799;28;20436;-77
2023/09/16 08:10:16;;;;;;;13.30;10.57;;;18.80;99.90;;;;;;5017068;28;20512;-76
2023/09/16 08:12:41;;;;;;;11.67;10.07;;;19.10;99.90;;;;;;5014090;28;20433;-76
2023/09/16 08:15:07;;;;;;;11.57;10.13;;;18.90;99.90;;;;;;5006239;28;20435;-77
2023/09/16 08:17:33;;;;;;;12.95;9.70;;;19.30;99.90;;;;;;5032041;28;20428;-77
2023/09/16 08:20:00;;;;;;;11.88;10.57;;;19.30;99.90;;;;;;5015954;28;20428;-76
2023/09/16 08:22:28;;;;;;;12.45;10.02;;;19.70;99.90;;;;;;5016067;28;20461;-76
2023/09/16 08:24:53;;;;;;;13.02;9.93;;;19.80;99.90;;;;;;5038270;28;20411;-78
2023/09/16 08:27:20;;;;;;;12.00;9.93;;;19.80;99.90;;;;;;5017817;28;20414;-77
2023/09/16 08:29:46;;;;;;;11.55;10.07;;;20.10;99.90;;;;;;5031368;28;20439;-77
2023/09/16 08:32:12;;;;;;;12.90;9.95;;;20.10;99.90;;;;;;5058854;28;20417;-76
2023/09/16 08:34:38;;;;;;;12.43;9.27;;;20.20;99.90;;;;;;5007515;28;20443;-76
2023/09/16 08:37:04;;;;;;;11.13;9.73;;;20.00;99.90;;;;;;5012706;28;20460;-76
2023/09/16 08:39:29;;;;;;;11.95;9.52;;;20.40;99.90;;;;;;5032514;28;20470;-76
2023/09/16 08:42:27;;;;;;;11.50;9.43;;;20.40;99.90;;;;;;5035631;28;20452;-76
2023/09/16 08:44:57;;;;;;;12.68;8.73;;;20.70;99.90;;;;;;5022250;28;20417;-76
2023/09/16 08:47:28;;;;;;;10.50;9.40;;;20.70;99.90;;;;;;5011010;28;20459;-75
2023/09/16 08:50:01;;;;;;;10.07;8.98;;;21.30;99.90;;;;;;5027671;28;20500;-75
2023/09/16 08:52:49;;;;;;;10.32;9.23;;;21.60;99.90;;;;;;5041989;28;20421;-75
2023/09/16 08:55:16;;;;;;;18.63;9.23;;;21.40;99.90;;;;;;5028116;28;20429;-76
2023/09/16 08:57:49;;;;;;;10.98;8.52;;;21.40;99.90;;;;;;5048828;28;20417;-76
2023/09/16 09:00:15;;;;;;;13.83;9.33;;;21.50;99.90;;;;;;5050158;28;20498;-76
2023/09/16 09:02:43;;;;;;;11.35;9.18;;;21.70;99.90;;;;;;5047588;28;20953;-75
2023/09/16 09:05:10;;;;;;;13.15;10.70;;;21.90;99.90;;;;;;5059134;28;20981;-76
2023/09/16 09:07:39;;;;;;;14.90;11.93;;;22.00;99.90;;;;;;5030782;28;20558;-76
2023/09/16 09:10:05;;;;;;;15.80;12.45;;;22.00;99.90;;;;;;5034079;28;20430;-76
2023/09/16 09:12:34;;;;;;;13.32;11.63;;;22.20;99.90;;;;;;5045155;28;20540;-75
2023/09/16 09:15:06;;;;;;;14.30;11.13;;;22.20;99.90;;;;;;5022394;28;20432;-75
2023/09/16 09:17:39;;;;;;;12.98;11.48;;;22.10;99.90;;;;;;5027817;28;20434;-76
2023/09/16 09:20:09;;;;;;;10.63;8.68;;;22.20;99.90;;;;;;5030638;28;20418;-75
2023/09/16 09:22:39;;;;;;;11.43;9.57;;;22.30;99.90;;;;;;5035148;28;20559;-76
2023/09/16 09:25:06;;;;;;;10.18;8.50;;;22.60;99.90;;;;;;5064489;28;20520;-76
2023/09/16 09:27:32;;;;;;;10.50;8.07;;;22.50;99.90;;;;;;5035605;28;20421;-76
2023/09/16 09:29:58;;;;;;;11.30;7.78;;;22.60;99.90;;;;;;5047118;28;20425;-76
2023/09/16 09:32:29;;;;;;;10.10;7.73;;;22.80;99.90;;;;;;5035749;28;20477;-76
2023/09/16 09:34:55;;;;;;;8.47;7.20;;;22.80;99.90;;;;;;5041881;28;20417;-76
2023/09/16 09:37:21;;;;;;;11.03;7.20;;;23.20;99.90;;;;;;5034107;28;20417;-76
2023/09/16 09:40:13;;;;;;;11.00;7.55;;;23.10;99.90;;;;;;5033469;28;20443;-76
2023/09/16 09:42:46;;;;;;;12.70;7.25;;;23.10;99.90;;;;;;5059224;28;20560;-76
2023/09/16 09:45:15;;;;;;;9.25;7.70;;;23.20;99.90;;;;;;5061072;28;20434;-76
2023/09/16 09:47:41;;;;;;;9.05;7.38;;;23.40;99.90;;;;;;5013579;28;20500;-76
2023/09/16 09:50:13;;;;;;;9.43;7.00;;;23.40;99.90;;;;;;5027414;28;20983;-76
2023/09/16 09:52:39;;;;;;;8.82;6.43;;;23.20;99.90;;;;;;5058419;28;20776;-75
2023/09/16 09:55:05;;;;;;;8.43;6.95;;;23.90;99.90;;;;;;5013380;28;20458;-76
2023/09/16 09:57:31;;;;;;;11.75;6.50;;;24.00;99.90;;;;;;5062945;28;20425;-76
2023/09/16 09:59:58;;;;;;;9.85;6.90;;;24.00;99.90;;;;;;5028774;28;20429;-76
2023/09/16 10:02:27;;;;;;;8.90;6.90;;;24.00;99.90;;;;;;5032055;28;20504;-76
2023/09/16 10:05:05;;;;;;;7.65;5.82;;;23.90;99.90;;;;;;5064555;28;20421;-76
2023/09/16 10:07:32;;;;;;;9.23;6.03;;;23.80;99.90;;;;;;5030933;28;20580;-76
2023/09/16 10:09:58;;;;;;;10.13;6.95;;;24.10;99.90;;;;;;5031016;28;20420;-77
2023/09/16 10:12:24;;;;;;;11.02;6.53;;;23.90;99.90;;;;;;5015075;28;20425;-76
2023/09/16 10:14:53;;;;;;;9.88;6.00;;;24.00;99.90;;;;;;5029334;28;20459;-78
2023/09/16 10:17:21;;;;;;;9.20;5.82;;;24.00;99.90;;;;;;5062378;28;20474;-77
2023/09/16 10:19:47;;;;;;;7.50;4.88;;;24.40;99.90;;;;;;5050999;28;20814;-75
2023/09/16 10:22:14;;;;;;;6.15;5.15;;;24.30;99.90;;;;;;5025983;28;20444;-75
2023/09/16 10:24:41;;;;;;;6.97;5.45;;;24.20;99.90;;;;;;5040096;28;20405;-75
2023/09/16 10:27:30;;;;;;;7.95;5.63;;;24.50;99.90;;;;;;5044113;28;20506;-76
2023/09/16 10:29:56;;;;;;;7.90;6.10;;;24.70;99.90;;;;;;5039482;28;20427;-76
2023/09/16 10:32:23;;;;;;;9.77;6.30;;;24.50;99.90;;;;;;5027361;28;20512;-75
2023/09/16 10:34:49;;;;;;;8.20;5.82;;;24.40;99.90;;;;;;5030550;28;20551;-75
2023/09/16 10:37:19;;;;;;;10.75;6.13;;;24.70;99.90;;;;;;5036716;28;20419;-75
2023/09/16 10:39:50;;;;;;;8.80;7.07;;;24.80;99.90;;;;;;5048477;28;20432;-75
2023/09/16 10:42:19;;;;;;;6.97;5.00;;;25.00;99.90;;;;;;5022992;28;20415;-75
2023/09/16 10:44:49;;;;;;;6.90;6.00;;;24.90;99.90;;;;;;5055217;28;20408;-75
2023/09/16 10:47:16;;;;;;;7.15;5.50;;;25.00;99.90;;;;;;5020593;28;20499;-76
2023/09/16 10:49:44;;;;;;;9.13;6.65;;;24.90;99.90;;;;;;5051340;28;20425;-76
2023/09/16 10:52:16;;;;;;;8.63;6.43;;;24.80;99.90;;;;;;5071400;28;20415;-76
2023/09/16 10:54:54;;;;;;;9.23;6.78;;;24.90;99.90;;;;;;5031394;28;20428;-76
2023/09/16 10:57:33;;;;;;;8.80;6.03;;;24.90;99.90;;;;;;5067434;28;20483;-76
2023/09/16 11:00:03;;;;;;;10.33;6.47;;;24.70;99.90;;;;;;5067353;28;20896;-76
2023/09/16 11:02:33;;;;;;;8.23;5.78;;;24.60;99.90;;;;;;5033066;28;20938;-76
2023/09/16 11:04:59;;;;;;;9.30;6.53;;;25.00;99.90;;;;;;5024620;28;20757;-76
2023/09/16 11:07:25;;;;;;;9.02;5.80;;;25.00;99.90;;;;;;5046275;28;20426;-76
2023/09/16 11:09:53;;;;;;;8.02;5.15;;;25.00;99.90;;;;;;5017594;28;20425;-76
2023/09/16 11:12:20;;;;;;;4.90;3.33;;;24.80;99.90;;;;;;5067415;28;20772;-76
2023/09/16 11:14:46;;;;;;;8.13;5.63;;;24.80;99.90;;;;;;5025747;28;20427;-76
2023/09/16 11:17:15;;;;;;;9.43;4.73;;;24.80;99.90;;;;;;5004212;28;20414;-76
2023/09/16 11:19:42;;;;;;;7.40;4.20;;;24.60;99.90;;;;;;5038107;28;20425;-76
2023/09/16 11:22:12;;;;;;;5.68;3.25;;;24.80;99.90;;;;;;5024768;28;20422;-76
2023/09/16 11:24:38;;;;;;;7.35;3.70;;;24.80;99.90;;;;;;5046998;28;20482;-77
2023/09/16 11:27:05;;;;;;;5.65;3.28;;;24.80;99.90;;;;;;5032385;28;20422;-77
2023/09/16 11:29:31;;;;;;;5.80;3.70;;;25.10;99.90;;;;;;5032705;28;20424;-77
2023/09/16 11:31:58;;;;;;;6.72;3.35;;;25.40;99.90;;;;;;5076942;28;20462;-77
2023/09/16 11:34:26;;;;;;;6.50;4.18;;;25.50;99.90;;;;;;5060980;28;20819;-77
2023/09/16 11:36:54;;;;;;;5.72;3.92;;;25.00;99.90;;;;;;5034962;28;20428;-77
2023/09/16 11:39:43;;;;;;;5.75;3.72;;;25.20;99.90;;;;;;5018978;28;20512;-77
2023/09/16 11:42:10;;;;;;;7.03;3.88;;;25.20;99.90;;;;;;5061443;28;20425;-77
2023/09/16 11:44:37;;;;;;;6.20;3.50;;;25.20;99.90;;;;;;5019547;28;20421;-78
2023/09/16 11:47:04;;;;;;;7.03;4.78;;;25.40;99.90;;;;;;5019299;28;20444;-78
2023/09/16 11:49:33;;;;;;;6.85;3.58;;;25.60;99.90;;;;;;5018717;28;20887;-78
2023/09/16 11:52:00;;;;;;;4.80;3.30;;;25.60;99.90;;;;;;5035413;28;20397;-78
2023/09/16 11:54:26;;;;;;;5.80;3.05;;;25.70;99.40;;;;;;5021670;28;20459;-78
2023/09/16 11:56:54;;;;;;;4.53;3.20;;;25.80;99.40;;;;;;5026626;28;20445;-78
2023/09/16 11:59:19;;;;;;;5.53;2.88;;;25.90;98.20;;;;;;5015636;28;20509;-78
2023/09/16 12:01:46;;;;;;;4.53;2.92;;;25.90;97.90;;;;;;5030130;28;20505;-78
2023/09/16 12:04:15;;;;;;;5.27;3.17;;;25.90;98.30;;;;;;5048857;28;20411;-78
2023/09/16 12:06:41;;;;;;;6.60;3.90;;;26.10;98.70;;;;;;5062646;28;20429;-78
2023/09/16 12:09:14;;;;;;;4.85;3.42;;;26.00;98.70;;;;;;5045157;28;20467;-78
2023/09/16 12:11:40;;;;;;;6.53;3.75;;;26.20;98.90;;;;;;5032755;28;20490;-78
2023/09/16 12:14:07;;;;;;;6.22;3.50;;;26.30;99.20;;;;;;5015684;28;20417;-76
2023/09/16 12:16:34;;;;;;;5.40;3.40;;;26.40;99.40;;;;;;5033206;28;20826;-76
2023/09/16 12:19:00;;;;;;;6.05;3.22;;;26.50;98.80;;;;;;5052743;28;20423;-76
2023/09/16 12:21:26;;;;;;;5.70;3.57;;;26.30;97.90;;;;;;5024481;28;20431;-76
2023/09/16 12:23:52;;;;;;;7.10;3.40;;;26.10;97.60;;;;;;5024973;28;20460;-77
2023/09/16 12:26:18;;;;;;;7.68;3.40;;;26.00;98.00;;;;;;5040094;28;20873;-77
2023/09/16 12:28:44;;;;;;;5.50;3.40;;;26.10;97.90;;;;;;5030723;28;20453;-77
2023/09/16 12:31:11;;;;;;;7.10;3.80;;;26.40;98.10;;;;;;5037470;28;20418;-77
2023/09/16 12:33:48;;;;;;;7.35;3.70;;;26.50;98.30;;;;;;5028943;28;20512;-76
2023/09/16 12:36:19;;;;;;;8.02;3.83;;;26.80;98.10;;;;;;5064594;28;20517;-76
2023/09/16 12:38:46;;;;;;;5.47;3.40;;;27.00;97.70;;;;;;5030256;28;20421;-75
2023/09/16 12:41:14;;;;;;;4.55;3.30;;;27.40;97.40;;;;;;5030805;28;20420;-75
2023/09/16 12:43:41;;;;;;;6.22;3.95;;;27.70;96.70;;;;;;5040433;28;20425;-75
2023/09/16 12:46:08;;;;;;;5.93;3.70;;;27.60;96.00;;;;;;5014491;28;20478;-76